createdAt,value
2022-10-11T00:02:21.687Z,12.03
2022-10-11T00:07:21.684Z,12.01
2022-10-11T00:12:21.725Z,12.11
2022-10-11T00:17:21.817Z,12.03
2022-10-11T00:22:21.714Z,12.06
2022-10-11T00:27:21.816Z,12.02
2022-10-11T00:32:21.692Z,11.87
2022-10-11T00:37:21.791Z,11.76
2022-10-11T00:42:21.720Z,11.89
2022-10-11T00:47:21.707Z,11.85
2022-10-11T00:52:21.744Z,11.66
2022-10-11T00:57:22.034Z,11.62
2022-10-11T01:02:21.711Z,11.66
2022-10-11T01:07:21.999Z,11.47
2022-10-11T01:17:22.228Z,11.51
2022-10-11T01:22:21.801Z,11.40
2022-10-11T01:27:21.756Z,11.15
2022-10-11T01:32:21.751Z,11.23
2022-10-11T01:37:21.718Z,11.19
2022-10-11T01:42:21.784Z,11.02
2022-10-11T01:47:21.755Z,10.97
2022-10-11T01:52:21.772Z,10.99
2022-10-11T01:57:21.751Z,11.04
2022-10-11T02:02:21.744Z,11.12
2022-10-11T02:07:21.823Z,10.69
2022-10-11T02:12:21.716Z,10.94
2022-10-11T02:17:21.795Z,10.87
2022-10-11T02:22:21.757Z,10.71
2022-10-11T02:27:22.073Z,10.76
2022-10-11T02:32:21.775Z,10.60
2022-10-11T02:37:21.774Z,10.57
2022-10-11T02:42:21.782Z,10.52
2022-10-11T02:47:21.773Z,10.69
2022-10-11T02:52:21.748Z,10.86
2022-10-11T02:57:21.983Z,10.87
2022-10-11T03:02:21.859Z,10.62
2022-10-11T03:07:21.962Z,10.88
2022-10-11T03:12:21.750Z,10.49
2022-10-11T03:17:36.106Z,10.81
2022-10-11T03:22:21.784Z,10.75
2022-10-11T03:27:21.905Z,10.88
2022-10-11T03:32:21.746Z,10.72
2022-10-11T03:37:21.866Z,10.74
2022-10-11T03:42:21.761Z,10.87
2022-10-11T03:47:21.833Z,10.82
2022-10-11T03:52:21.784Z,10.80
2022-10-11T03:57:21.789Z,10.82
2022-10-11T04:02:21.800Z,10.91
2022-10-11T04:07:21.838Z,10.73
2022-10-11T04:12:21.946Z,10.65
2022-10-11T04:17:22.058Z,10.71
2022-10-11T04:22:21.796Z,10.74
2022-10-11T04:27:22.017Z,10.92
2022-10-11T04:32:21.804Z,11.00
2022-10-11T04:37:21.996Z,11.10
2022-10-11T04:42:21.793Z,11.16
2022-10-11T04:47:21.828Z,10.96
2022-10-11T04:52:25.566Z,11.18
2022-10-11T04:57:21.842Z,11.12
2022-10-11T05:07:21.930Z,11.27
2022-10-11T05:12:21.806Z,11.26
2022-10-11T05:17:21.853Z,11.32
2022-10-11T05:22:21.835Z,11.38
2022-10-11T05:27:22.168Z,11.42
2022-10-11T05:32:23.740Z,11.44
2022-10-11T05:37:21.837Z,11.51
2022-10-11T05:42:21.827Z,11.27
2022-10-11T05:47:21.862Z,11.48
2022-10-11T05:52:21.824Z,11.57
2022-10-11T05:57:21.843Z,11.66
2022-10-11T06:02:21.876Z,11.84
2022-10-11T06:07:22.065Z,11.76
2022-10-11T06:12:21.835Z,11.86
2022-10-11T06:17:22.032Z,12.00
2022-10-11T06:22:21.855Z,12.10
2022-10-11T06:27:21.996Z,12.15
2022-10-11T06:32:22.122Z,12.26
2022-10-11T06:37:21.924Z,12.38
2022-10-11T06:42:21.882Z,12.51
2022-10-11T06:47:21.864Z,12.66
2022-10-11T06:57:21.895Z,12.70
2022-10-11T07:02:21.975Z,12.76
2022-10-11T07:07:21.881Z,12.98
2022-10-11T07:12:21.879Z,13.17
2022-10-11T07:22:21.934Z,13.21
2022-10-11T07:27:22.104Z,12.95
2022-10-11T07:32:21.905Z,13.20
2022-10-11T07:37:22.081Z,13.60
2022-10-11T07:42:22.021Z,14.09
2022-10-11T07:47:21.906Z,14.30
2022-10-11T07:52:21.910Z,14.16
2022-10-11T07:57:21.938Z,14.03
2022-10-11T08:02:21.909Z,14.52
2022-10-11T08:07:21.906Z,14.77
2022-10-11T08:12:21.923Z,15.72
2022-10-11T08:17:22.217Z,16.52
2022-10-11T08:22:21.922Z,16.93
2022-10-11T08:27:22.233Z,16.81
2022-10-11T08:32:21.951Z,17.68
2022-10-11T08:37:21.923Z,17.78
2022-10-11T08:42:21.897Z,18.72
2022-10-11T08:47:21.922Z,17.80
2022-10-11T08:52:21.910Z,18.90
2022-10-11T08:57:22.155Z,19.35
2022-10-11T09:02:21.940Z,19.23
2022-10-11T09:07:22.252Z,19.57
2022-10-11T09:12:21.933Z,19.59
2022-10-11T09:17:22.088Z,19.51
2022-10-11T09:22:23.249Z,20.27
2022-10-11T09:27:37.858Z,20.65
2022-10-11T09:32:21.943Z,19.46
2022-10-11T09:37:22.028Z,19.55
2022-10-11T09:42:21.956Z,19.67
2022-10-11T09:47:22.002Z,20.44
2022-10-11T09:52:21.938Z,19.86
2022-10-11T09:57:22.287Z,19.89
2022-10-11T10:02:21.958Z,20.19
2022-10-11T10:07:22.253Z,20.41
2022-10-11T10:12:21.976Z,19.59
2022-10-11T10:17:22.218Z,19.43
2022-10-11T10:22:21.973Z,19.68
2022-10-11T10:27:22.193Z,19.45
2022-10-11T10:32:22.233Z,19.22
2022-10-11T10:37:22.136Z,19.35
2022-10-11T10:42:22.016Z,19.48
2022-10-11T10:47:21.968Z,19.20
2022-10-11T10:52:22.001Z,19.08
2022-10-11T10:57:21.998Z,18.94
2022-10-11T11:02:39.714Z,19.02
2022-10-11T11:07:21.989Z,19.01
2022-10-11T11:12:22.025Z,19.00
2022-10-11T11:17:22.017Z,18.83
2022-10-11T11:22:22.037Z,18.69
2022-10-11T11:27:22.014Z,18.97
2022-10-11T11:32:22.004Z,18.80
2022-10-11T11:37:22.006Z,18.65
2022-10-11T11:42:22.008Z,18.60
2022-10-11T11:47:22.017Z,18.59
2022-10-11T11:52:21.992Z,18.76
2022-10-11T11:57:22.028Z,18.82
2022-10-11T12:07:24.026Z,18.86
2022-10-11T12:12:21.990Z,18.92
2022-10-11T12:17:22.436Z,19.06
2022-10-11T12:22:22.036Z,19.19
2022-10-11T12:27:22.404Z,19.17
2022-10-11T12:32:22.228Z,18.99
2022-10-11T12:37:22.085Z,19.01
2022-10-11T12:42:22.201Z,19.07
2022-10-11T12:47:22.041Z,19.17
2022-10-11T12:52:24.038Z,19.19
2022-10-11T12:57:22.616Z,19.11
2022-10-11T13:02:22.027Z,19.10
2022-10-11T13:07:22.319Z,19.08
2022-10-11T13:12:24.059Z,19.12
2022-10-11T13:17:22.261Z,19.24
2022-10-11T13:22:22.061Z,19.30
2022-10-11T13:27:22.524Z,19.31
2022-10-11T13:32:22.062Z,19.35
2022-10-11T13:37:22.240Z,19.33
2022-10-11T13:42:22.077Z,19.46
2022-10-11T13:47:22.216Z,19.47
2022-10-11T13:57:22.448Z,19.55
2022-10-11T14:02:22.091Z,19.42
2022-10-11T14:07:22.145Z,19.29
2022-10-11T14:12:22.095Z,19.36
2022-10-11T14:22:22.115Z,19.47
2022-10-11T14:27:22.382Z,19.49
2022-10-11T14:32:22.101Z,19.48
2022-10-11T14:37:22.354Z,19.52
2022-10-11T14:42:22.152Z,19.43
2022-10-11T14:47:24.141Z,19.33
2022-10-11T14:52:22.083Z,19.32
2022-10-11T14:57:22.123Z,19.31
2022-10-11T15:02:22.086Z,19.27
2022-10-11T15:07:22.127Z,19.23
2022-10-11T15:12:22.169Z,19.21
2022-10-11T15:17:22.123Z,19.24
2022-10-11T15:22:22.135Z,19.08
2022-10-11T15:27:22.131Z,19.01
2022-10-11T15:32:22.139Z,18.99
2022-10-11T15:37:22.206Z,18.96
2022-10-11T15:42:22.107Z,18.97
2022-10-11T15:47:22.142Z,18.88
2022-10-11T15:52:22.141Z,18.79
2022-10-11T15:57:22.448Z,18.72
2022-10-11T16:02:22.123Z,18.66
2022-10-11T16:07:22.420Z,18.65
2022-10-11T16:12:22.133Z,18.59
2022-10-11T16:17:22.650Z,18.52
2022-10-11T16:22:22.166Z,18.42
2022-10-11T16:27:22.153Z,18.32
2022-10-11T16:32:22.165Z,18.11
2022-10-11T16:37:22.320Z,17.91
2022-10-11T16:42:22.165Z,17.94
2022-10-11T16:47:22.146Z,17.88
2022-10-11T16:52:22.182Z,17.84
2022-10-11T17:02:22.206Z,17.85
2022-10-11T17:07:22.208Z,17.74
2022-10-11T17:12:22.375Z,17.71
2022-10-11T17:17:22.512Z,17.59
2022-10-11T17:27:22.744Z,17.46
2022-10-11T17:37:24.450Z,17.37
2022-10-11T17:42:22.185Z,17.23
2022-10-11T17:47:22.194Z,17.26
2022-10-11T17:57:22.354Z,17.16
2022-10-11T18:02:22.383Z,17.23
2022-10-11T18:07:22.217Z,17.17
2022-10-11T18:12:22.450Z,17.11
2022-10-11T18:17:22.342Z,17.07
2022-10-11T18:22:22.182Z,16.93
2022-10-11T18:32:24.482Z,16.78
2022-10-11T18:37:22.280Z,16.82
2022-10-11T18:42:22.367Z,16.77
2022-10-11T18:47:22.575Z,16.78
2022-10-11T18:52:22.476Z,16.70
2022-10-11T18:57:24.478Z,16.54
2022-10-11T19:02:22.219Z,16.21
2022-10-11T19:07:22.435Z,16.23
2022-10-11T19:12:24.246Z,16.31
2022-10-11T19:17:22.493Z,16.32
2022-10-11T19:22:22.508Z,16.37
2022-10-11T19:27:22.234Z,16.31
2022-10-11T19:32:22.272Z,16.19
2022-10-11T19:37:22.446Z,16.03
2022-10-11T19:42:26.509Z,15.96
2022-10-11T19:47:22.595Z,16.06
2022-10-11T19:52:24.772Z,16.05
2022-10-11T19:57:24.345Z,16.02
2022-10-11T20:02:22.248Z,15.97
2022-10-11T20:07:22.301Z,15.84
2022-10-11T20:12:22.266Z,15.73
2022-10-11T20:17:22.752Z,15.66
2022-10-11T20:22:22.378Z,15.51
2022-10-11T20:27:22.286Z,15.13
2022-10-11T20:32:24.793Z,15.16
2022-10-11T20:37:22.286Z,14.81
2022-10-11T20:42:25.257Z,14.71
2022-10-11T20:47:22.532Z,14.87
2022-10-11T20:52:22.256Z,14.97
2022-10-11T20:57:22.310Z,15.01
2022-10-11T21:02:22.329Z,14.82
2022-10-11T21:07:22.314Z,14.58
2022-10-11T21:12:22.265Z,14.49
2022-10-11T21:17:22.573Z,14.42
2022-10-11T21:22:22.305Z,14.11
2022-10-11T21:27:22.290Z,14.16
2022-10-11T21:32:22.328Z,14.02
2022-10-11T21:37:22.339Z,14.03
2022-10-11T21:42:27.181Z,14.06
2022-10-11T21:47:22.330Z,13.91
2022-10-11T21:52:22.340Z,13.81
2022-10-11T21:57:22.320Z,13.84
2022-10-11T22:02:22.316Z,13.70
2022-10-11T22:07:22.328Z,13.68
2022-10-11T22:12:22.298Z,13.67
2022-10-11T22:17:22.548Z,13.42
2022-10-11T22:22:22.302Z,12.98
2022-10-11T22:27:22.514Z,13.15
2022-10-11T22:32:22.366Z,13.25
2022-10-11T22:37:22.487Z,12.98
2022-10-11T22:42:26.868Z,12.95
2022-10-11T22:47:22.459Z,13.15
2022-10-11T22:52:22.318Z,12.87
2022-10-11T22:57:22.429Z,13.00
2022-10-11T23:02:22.317Z,13.21
2022-10-11T23:07:22.386Z,13.18
2022-10-11T23:12:22.545Z,12.78
2022-10-11T23:17:22.446Z,13.00
2022-10-11T23:22:22.326Z,12.91
2022-10-11T23:27:22.649Z,12.86
2022-10-11T23:32:22.504Z,12.65
2022-10-11T23:37:22.603Z,12.89
2022-10-11T23:42:22.370Z,12.71
2022-10-11T23:47:22.341Z,12.79
2022-10-11T23:52:22.381Z,12.77
2022-10-11T23:57:22.376Z,12.51
